TimeCDT,TemperatureF,Dew PointF,Humidity,Sea Level PressureIn,VisibilityMPH,Wind Direction,Wind SpeedMPH,Gust SpeedMPH,PrecipitationIn,Events,Conditions,WindDirDegrees,DateUTC
12:51 AM,60.1,52.0,75,29.97,10.0,SSW,9.2,-,N/A,,Clear,210,2012-11-02 05:51:00
1:51 AM,59.0,51.1,75,29.96,10.0,SW,5.8,-,N/A,,Clear,220,2012-11-02 06:51:00
2:51 AM,59.0,51.1,75,29.96,10.0,SSW,9.2,-,N/A,,Clear,200,2012-11-02 07:51:00
3:51 AM,59.0,52.0,78,29.96,10.0,SW,6.9,-,N/A,,Clear,220,2012-11-02 08:51:00
4:51 AM,57.9,53.1,84,29.96,10.0,SSW,6.9,-,N/A,,Clear,200,2012-11-02 09:51:00
5:51 AM,55.9,53.1,90,29.97,10.0,South,4.6,-,N/A,,Clear,190,2012-11-02 10:51:00
6:51 AM,55.9,54.0,93,29.98,10.0,SSW,6.9,-,N/A,,Clear,200,2012-11-02 11:51:00
7:51 AM,57.9,55.0,90,29.99,10.0,SSW,8.1,-,N/A,,Clear,200,2012-11-02 12:51:00
8:51 AM,63.0,59.0,87,30.01,10.0,South,8.1,-,N/A,,Clear,190,2012-11-02 13:51:00
9:51 AM,69.1,61.0,75,30.01,10.0,SSW,10.4,-,N/A,,Clear,200,2012-11-02 14:51:00
10:51 AM,75.2,60.8,61,30.03,10.0,SW,10.4,-,N/A,,Clear,220,2012-11-02 15:51:00
11:51 AM,82.0,55.9,41,30.01,10.0,SSW,11.5,-,N/A,,Clear,210,2012-11-02 16:51:00
12:51 PM,84.9,53.1,33,29.99,10.0,South,15.0,20.7,N/A,,Clear,180,2012-11-02 17:51:00
1:51 PM,86.0,52.0,31,29.95,10.0,South,12.7,-,N/A,,Clear,180,2012-11-02 18:51:00
2:51 PM,86.0,51.1,30,29.92,10.0,South,11.5,-,N/A,,Clear,180,2012-11-02 19:51:00
3:51 PM,86.0,51.8,31,29.93,10.0,South,11.5,-,N/A,,Clear,170,2012-11-02 20:51:00
4:51 PM,84.9,50.0,30,29.90,10.0,South,13.8,-,N/A,,Clear,170,2012-11-02 21:51:00
5:51 PM,82.0,54.0,38,29.90,10.0,South,9.2,-,N/A,,Clear,170,2012-11-02 22:51:00
6:51 PM,78.1,55.9,46,29.91,10.0,SSE,10.4,-,N/A,,Clear,150,2012-11-02 23:51:00
7:51 PM,75.0,55.9,51,29.93,10.0,SSE,10.4,-,N/A,,Clear,150,2012-11-03 00:51:00
8:51 PM,73.9,57.0,55,29.94,10.0,SSE,9.2,-,N/A,,Clear,160,2012-11-03 01:51:00
9:51 PM,71.1,57.0,61,29.95,10.0,South,8.1,-,N/A,,Clear,170,2012-11-03 02:51:00
10:51 PM,71.1,57.9,63,29.96,10.0,South,10.4,-,N/A,,Clear,180,2012-11-03 03:51:00
11:51 PM,69.8,59.0,68,29.99,10.0,South,9.2,-,N/A,,Clear,190,2012-11-03 04:51:00